sensor_id;sensor_type;location;lat;lon;timestamp;temperature;humidity
52869;DHT22;39100;53.480;6.158;2023-08-06T00:02:13;14.70;99.90
52869;DHT22;39100;53.480;6.158;2023-08-06T00:04:38;14.70;99.90
52869;DHT22;39100;53.480;6.158;2023-08-06T00:07:04;14.70;99.90
52869;DHT22;39100;53.480;6.158;2023-08-06T00:09:30;14.70;99.90
52869;DHT22;39100;53.480;6.158;2023-08-06T00:11:55;14.70;99.90
52869;DHT22;39100;53.480;6.158;2023-08-06T00:14:21;14.80;99.90
52869;DHT22;39100;53.480;6.158;2023-08-06T00:16:46;14.70;99.90
52869;DHT22;39100;53.480;6.158;2023-08-06T00:19:12;14.70;99.90
52869;DHT22;39100;53.480;6.158;2023-08-06T00:21:38;14.70;99.90
52869;DHT22;39100;53.480;6.158;2023-08-06T00:24:03;14.70;99.90
52869;DHT22;39100;53.480;6.158;2023-08-06T00:26:29;14.70;99.90
52869;DHT22;39100;53.480;6.158;2023-08-06T00:28:54;14.70;99.90
52869;DHT22;39100;53.480;6.158;2023-08-06T00:31:20;14.80;99.90
52869;DHT22;39100;53.480;6.158;2023-08-06T00:33:45;14.80;99.90
52869;DHT22;39100;53.480;6.158;2023-08-06T00:36:11;14.70;99.90
52869;DHT22;39100;53.480;6.158;2023-08-06T00:38:36;14.70;99.90
52869;DHT22;39100;53.480;6.158;2023-08-06T00:41:02;14.70;99.90
52869;DHT22;39100;53.480;6.158;2023-08-06T00:43:28;14.70;99.90
52869;DHT22;39100;53.480;6.158;2023-08-06T00:45:53;14.70;99.90
52869;DHT22;39100;53.480;6.158;2023-08-06T00:48:19;14.60;99.90
52869;DHT22;39100;53.480;6.158;2023-08-06T00:50:45;14.70;99.90
52869;DHT22;39100;53.480;6.158;2023-08-06T00:53:11;14.70;99.90
52869;DHT22;39100;53.480;6.158;2023-08-06T00:55:37;14.70;99.90
52869;DHT22;39100;53.480;6.158;2023-08-06T00:58:03;14.60;99.90
52869;DHT22;39100;53.480;6.158;2023-08-06T01:00:29;14.60;99.90
52869;DHT22;39100;53.480;6.158;2023-08-06T01:02:55;14.60;99.90
52869;DHT22;39100;53.480;6.158;2023-08-06T01:05:21;14.60;99.90
52869;DHT22;39100;53.480;6.158;2023-08-06T01:15:58;14.60;99.90
52869;DHT22;39100;53.480;6.158;2023-08-06T01:18:25;14.60;99.90
52869;DHT22;39100;53.480;6.158;2023-08-06T01:20:51;14.60;99.90
52869;DHT22;39100;53.480;6.158;2023-08-06T01:23:17;14.60;99.90
52869;DHT22;39100;53.480;6.158;2023-08-06T01:28:27;14.60;99.90
52869;DHT22;39100;53.480;6.158;2023-08-06T01:30:59;14.60;99.90
52869;DHT22;39100;53.480;6.158;2023-08-06T01:33:28;14.60;99.90
52869;DHT22;39100;53.480;6.158;2023-08-06T01:35:54;14.60;99.90
52869;DHT22;39100;53.480;6.158;2023-08-06T01:38:21;14.60;99.90
52869;DHT22;39100;53.480;6.158;2023-08-06T01:40:46;14.60;99.90
52869;DHT22;39100;53.480;6.158;2023-08-06T01:43:12;14.60;99.90
52869;DHT22;39100;53.480;6.158;2023-08-06T01:45:37;14.60;99.90
52869;DHT22;39100;53.480;6.158;2023-08-06T01:48:03;14.60;99.90
52869;DHT22;39100;53.480;6.158;2023-08-06T01:50:29;14.80;99.90
52869;DHT22;39100;53.480;6.158;2023-08-06T01:52:54;14.60;99.90
52869;DHT22;39100;53.480;6.158;2023-08-06T01:55:20;14.60;99.90
52869;DHT22;39100;53.480;6.158;2023-08-06T01:57:45;14.60;99.90
52869;DHT22;39100;53.480;6.158;2023-08-06T02:00:11;14.60;99.90
52869;DHT22;39100;53.480;6.158;2023-08-06T02:02:37;14.60;99.90
52869;DHT22;39100;53.480;6.158;2023-08-06T02:05:03;14.60;99.90
52869;DHT22;39100;53.480;6.158;2023-08-06T02:07:29;14.60;99.90
52869;DHT22;39100;53.480;6.158;2023-08-06T02:09:54;14.90;99.90
52869;DHT22;39100;53.480;6.158;2023-08-06T02:12:20;14.60;99.90
52869;DHT22;39100;53.480;6.158;2023-08-06T02:14:45;14.60;99.90
52869;DHT22;39100;53.480;6.158;2023-08-06T02:17:11;14.60;99.90
52869;DHT22;39100;53.480;6.158;2023-08-06T02:19:37;14.60;99.90
52869;DHT22;39100;53.480;6.158;2023-08-06T02:22:02;14.60;99.90
52869;DHT22;39100;53.480;6.158;2023-08-06T02:24:28;14.60;99.90
52869;DHT22;39100;53.480;6.158;2023-08-06T02:26:53;14.60;99.90
52869;DHT22;39100;53.480;6.158;2023-08-06T02:29:21;14.60;99.90
52869;DHT22;39100;53.480;6.158;2023-08-06T02:31:46;14.60;99.90
52869;DHT22;39100;53.480;6.158;2023-08-06T02:34:12;14.60;99.90
52869;DHT22;39100;53.480;6.158;2023-08-06T02:36:37;14.70;99.90
52869;DHT22;39100;53.480;6.158;2023-08-06T02:39:03;14.60;99.90
52869;DHT22;39100;53.480;6.158;2023-08-06T02:41:28;14.70;99.90
52869;DHT22;39100;53.480;6.158;2023-08-06T02:43:54;14.60;99.90
52869;DHT22;39100;53.480;6.158;2023-08-06T02:46:20;14.70;99.90
52869;DHT22;39100;53.480;6.158;2023-08-06T02:48:45;14.60;99.90
52869;DHT22;39100;53.480;6.158;2023-08-06T02:51:11;14.60;99.90
52869;DHT22;39100;53.480;6.158;2023-08-06T02:53:36;14.70;99.90
52869;DHT22;39100;53.480;6.158;2023-08-06T02:56:02;14.70;99.90
52869;DHT22;39100;53.480;6.158;2023-08-06T02:58:28;14.70;99.90
52869;DHT22;39100;53.480;6.158;2023-08-06T03:01:01;14.70;99.90
52869;DHT22;39100;53.480;6.158;2023-08-06T03:03:28;14.70;99.90
52869;DHT22;39100;53.480;6.158;2023-08-06T03:05:54;14.70;99.90
52869;DHT22;39100;53.480;6.158;2023-08-06T03:08:19;14.70;99.90
52869;DHT22;39100;53.480;6.158;2023-08-06T03:10:48;14.70;99.90
52869;DHT22;39100;53.480;6.158;2023-08-06T03:13:14;14.70;99.90
52869;DHT22;39100;53.480;6.158;2023-08-06T03:15:39;14.70;99.90
52869;DHT22;39100;53.480;6.158;2023-08-06T03:18:05;14.70;99.90
52869;DHT22;39100;53.480;6.158;2023-08-06T03:20:32;14.70;99.90
52869;DHT22;39100;53.480;6.158;2023-08-06T03:22:57;14.80;99.90
52869;DHT22;39100;53.480;6.158;2023-08-06T03:25:23;14.70;99.90
52869;DHT22;39100;53.480;6.158;2023-08-06T03:27:49;14.70;99.90
52869;DHT22;39100;53.480;6.158;2023-08-06T03:30:14;14.60;99.90
52869;DHT22;39100;53.480;6.158;2023-08-06T03:32:40;14.70;99.90
52869;DHT22;39100;53.480;6.158;2023-08-06T03:35:06;14.70;99.90
52869;DHT22;39100;53.480;6.158;2023-08-06T03:37:31;14.70;99.90
52869;DHT22;39100;53.480;6.158;2023-08-06T03:39:57;14.70;99.90
52869;DHT22;39100;53.480;6.158;2023-08-06T03:42:22;14.70;99.90
52869;DHT22;39100;53.480;6.158;2023-08-06T03:44:48;14.70;99.90
52869;DHT22;39100;53.480;6.158;2023-08-06T03:47:14;15.60;99.90
52869;DHT22;39100;53.480;6.158;2023-08-06T03:49:39;14.80;99.90
52869;DHT22;39100;53.480;6.158;2023-08-06T03:52:05;14.70;99.90
52869;DHT22;39100;53.480;6.158;2023-08-06T03:54:31;14.70;99.90
52869;DHT22;39100;53.480;6.158;2023-08-06T03:56:56;14.70;99.90
52869;DHT22;39100;53.480;6.158;2023-08-06T03:59:22;14.70;99.90
52869;DHT22;39100;53.480;6.158;2023-08-06T04:01:47;14.70;99.90
52869;DHT22;39100;53.480;6.158;2023-08-06T04:04:13;14.70;99.90
52869;DHT22;39100;53.480;6.158;2023-08-06T04:06:39;14.70;99.90
52869;DHT22;39100;53.480;6.158;2023-08-06T04:09:04;14.70;99.90
52869;DHT22;39100;53.480;6.158;2023-08-06T04:11:30;14.70;99.90
52869;DHT22;39100;53.480;6.158;2023-08-06T04:13:55;14.70;99.90
52869;DHT22;39100;53.480;6.158;2023-08-06T04:16:21;14.70;99.90
52869;DHT22;39100;53.480;6.158;2023-08-06T04:18:47;14.70;99.90
52869;DHT22;39100;53.480;6.158;2023-08-06T04:21:12;14.70;99.90
52869;DHT22;39100;53.480;6.158;2023-08-06T04:23:38;14.60;99.90
52869;DHT22;39100;53.480;6.158;2023-08-06T04:26:03;14.60;99.90
52869;DHT22;39100;53.480;6.158;2023-08-06T04:28:30;14.60;99.90
52869;DHT22;39100;53.480;6.158;2023-08-06T04:30:55;14.70;99.90
52869;DHT22;39100;53.480;6.158;2023-08-06T04:33:21;14.70;99.90
52869;DHT22;39100;53.480;6.158;2023-08-06T04:35:46;14.60;99.90
52869;DHT22;39100;53.480;6.158;2023-08-06T04:38:12;14.70;99.90
52869;DHT22;39100;53.480;6.158;2023-08-06T04:40:38;14.70;99.90
52869;DHT22;39100;53.480;6.158;2023-08-06T04:43:03;14.70;99.90
52869;DHT22;39100;53.480;6.158;2023-08-06T04:45:29;14.80;99.90
52869;DHT22;39100;53.480;6.158;2023-08-06T04:47:54;14.80;99.90
52869;DHT22;39100;53.480;6.158;2023-08-06T04:50:20;14.80;99.90
52869;DHT22;39100;53.480;6.158;2023-08-06T04:52:46;14.80;99.90
52869;DHT22;39100;53.480;6.158;2023-08-06T04:55:11;15.00;99.90
52869;DHT22;39100;53.480;6.158;2023-08-06T04:57:37;14.80;99.90
52869;DHT22;39100;53.480;6.158;2023-08-06T05:00:03;14.90;99.90
52869;DHT22;39100;53.480;6.158;2023-08-06T05:02:30;14.90;99.90
52869;DHT22;39100;53.480;6.158;2023-08-06T05:04:58;14.90;99.90
52869;DHT22;39100;53.480;6.158;2023-08-06T05:07:23;14.90;99.90
52869;DHT22;39100;53.480;6.158;2023-08-06T05:09:49;14.90;99.90
52869;DHT22;39100;53.480;6.158;2023-08-06T05:12:14;14.90;99.90
52869;DHT22;39100;53.480;6.158;2023-08-06T05:14:40;14.90;99.90
52869;DHT22;39100;53.480;6.158;2023-08-06T05:17:05;15.00;99.90
52869;DHT22;39100;53.480;6.158;2023-08-06T05:19:31;15.00;99.90
52869;DHT22;39100;53.480;6.158;2023-08-06T05:21:57;15.20;99.90
52869;DHT22;39100;53.480;6.158;2023-08-06T05:24:22;15.10;99.90
52869;DHT22;39100;53.480;6.158;2023-08-06T05:26:48;15.00;99.90
52869;DHT22;39100;53.480;6.158;2023-08-06T05:29:16;15.10;99.90
52869;DHT22;39100;53.480;6.158;2023-08-06T05:31:41;15.10;99.90
52869;DHT22;39100;53.480;6.158;2023-08-06T05:34:07;15.10;99.90
52869;DHT22;39100;53.480;6.158;2023-08-06T05:36:33;15.20;99.90
52869;DHT22;39100;53.480;6.158;2023-08-06T05:38:58;15.20;99.90
52869;DHT22;39100;53.480;6.158;2023-08-06T05:41:24;15.20;99.90
52869;DHT22;39100;53.480;6.158;2023-08-06T05:43:50;15.20;99.90
52869;DHT22;39100;53.480;6.158;2023-08-06T05:46:15;15.20;99.90
52869;DHT22;39100;53.480;6.158;2023-08-06T05:48:41;15.30;99.90
52869;DHT22;39100;53.480;6.158;2023-08-06T05:51:06;15.30;99.90
52869;DHT22;39100;53.480;6.158;2023-08-06T05:53:32;15.30;99.90
52869;DHT22;39100;53.480;6.158;2023-08-06T05:55:58;15.40;99.90
52869;DHT22;39100;53.480;6.158;2023-08-06T05:58:24;15.40;99.90
52869;DHT22;39100;53.480;6.158;2023-08-06T06:00:51;15.40;99.90
52869;DHT22;39100;53.480;6.158;2023-08-06T06:03:17;15.40;99.90
52869;DHT22;39100;53.480;6.158;2023-08-06T06:05:43;15.50;99.90
52869;DHT22;39100;53.480;6.158;2023-08-06T06:08:08;15.50;99.90
52869;DHT22;39100;53.480;6.158;2023-08-06T06:10:35;15.60;99.90
52869;DHT22;39100;53.480;6.158;2023-08-06T06:13:00;15.60;99.90
52869;DHT22;39100;53.480;6.158;2023-08-06T06:15:26;15.60;99.90
52869;DHT22;39100;53.480;6.158;2023-08-06T06:17:51;15.50;99.90
52869;DHT22;39100;53.480;6.158;2023-08-06T06:20:17;15.60;99.90
52869;DHT22;39100;53.480;6.158;2023-08-06T06:22:42;15.80;99.90
52869;DHT22;39100;53.480;6.158;2023-08-06T06:25:08;16.40;99.90
52869;DHT22;39100;53.480;6.158;2023-08-06T06:27:35;15.60;99.90
52869;DHT22;39100;53.480;6.158;2023-08-06T06:30:00;15.60;99.90
52869;DHT22;39100;53.480;6.158;2023-08-06T06:32:26;15.60;99.90
52869;DHT22;39100;53.480;6.158;2023-08-06T06:34:52;15.70;99.90
52869;DHT22;39100;53.480;6.158;2023-08-06T06:37:17;15.70;99.90
52869;DHT22;39100;53.480;6.158;2023-08-06T06:39:43;15.70;99.90
52869;DHT22;39100;53.480;6.158;2023-08-06T06:42:09;16.60;99.90
52869;DHT22;39100;53.480;6.158;2023-08-06T06:44:35;15.80;99.90
52869;DHT22;39100;53.480;6.158;2023-08-06T06:47:00;15.80;99.90
52869;DHT22;39100;53.480;6.158;2023-08-06T06:49:26;16.70;99.90
52869;DHT22;39100;53.480;6.158;2023-08-06T06:51:52;15.90;99.90
52869;DHT22;39100;53.480;6.158;2023-08-06T06:54:17;16.00;99.90
52869;DHT22;39100;53.480;6.158;2023-08-06T06:56:43;15.90;99.90
52869;DHT22;39100;53.480;6.158;2023-08-06T06:59:08;16.00;99.90
52869;DHT22;39100;53.480;6.158;2023-08-06T07:01:34;16.70;99.90
52869;DHT22;39100;53.480;6.158;2023-08-06T07:03:59;16.00;99.90
52869;DHT22;39100;53.480;6.158;2023-08-06T07:06:30;16.10;99.90
52869;DHT22;39100;53.480;6.158;2023-08-06T07:08:55;16.30;99.90
52869;DHT22;39100;53.480;6.158;2023-08-06T07:11:21;16.20;99.90
52869;DHT22;39100;53.480;6.158;2023-08-06T07:13:47;16.20;99.90
52869;DHT22;39100;53.480;6.158;2023-08-06T07:16:12;16.30;99.90
52869;DHT22;39100;53.480;6.158;2023-08-06T07:18:38;16.30;99.90
52869;DHT22;39100;53.480;6.158;2023-08-06T07:21:05;16.30;99.90
52869;DHT22;39100;53.480;6.158;2023-08-06T07:23:30;16.40;99.90
52869;DHT22;39100;53.480;6.158;2023-08-06T07:25:56;16.50;99.90
52869;DHT22;39100;53.480;6.158;2023-08-06T07:28:22;16.50;99.90
52869;DHT22;39100;53.480;6.158;2023-08-06T07:30:47;16.60;99.90
52869;DHT22;39100;53.480;6.158;2023-08-06T07:33:13;16.60;99.90
52869;DHT22;39100;53.480;6.158;2023-08-06T07:35:39;16.70;99.90
52869;DHT22;39100;53.480;6.158;2023-08-06T07:38:04;16.70;99.90
52869;DHT22;39100;53.480;6.158;2023-08-06T07:40:30;16.80;99.90
52869;DHT22;39100;53.480;6.158;2023-08-06T07:42:56;16.90;99.90
52869;DHT22;39100;53.480;6.158;2023-08-06T07:45:21;17.00;99.90
52869;DHT22;39100;53.480;6.158;2023-08-06T07:47:47;17.10;99.90
52869;DHT22;39100;53.480;6.158;2023-08-06T07:50:13;17.10;99.90
52869;DHT22;39100;53.480;6.158;2023-08-06T07:52:39;17.50;99.90
52869;DHT22;39100;53.480;6.158;2023-08-06T07:55:05;17.30;99.90
52869;DHT22;39100;53.480;6.158;2023-08-06T07:57:31;17.40;99.90
52869;DHT22;39100;53.480;6.158;2023-08-06T07:59:57;17.50;99.90
52869;DHT22;39100;53.480;6.158;2023-08-06T08:02:22;17.60;99.90
52869;DHT22;39100;53.480;6.158;2023-08-06T08:04:48;17.70;99.90
52869;DHT22;39100;53.480;6.158;2023-08-06T08:07:14;17.80;99.90
52869;DHT22;39100;53.480;6.158;2023-08-06T08:09:39;17.90;99.90
52869;DHT22;39100;53.480;6.158;2023-08-06T08:12:05;18.10;99.90
52869;DHT22;39100;53.480;6.158;2023-08-06T08:14:31;18.30;99.90
52869;DHT22;39100;53.480;6.158;2023-08-06T08:17:04;18.40;99.90
52869;DHT22;39100;53.480;6.158;2023-08-06T08:19:31;18.60;99.90
52869;DHT22;39100;53.480;6.158;2023-08-06T08:21:57;18.70;99.90
52869;DHT22;39100;53.480;6.158;2023-08-06T08:24:23;18.80;99.90
52869;DHT22;39100;53.480;6.158;2023-08-06T08:26:52;18.80;99.90
52869;DHT22;39100;53.480;6.158;2023-08-06T08:29:19;18.80;99.90
52869;DHT22;39100;53.480;6.158;2023-08-06T08:31:46;18.80;99.90
52869;DHT22;39100;53.480;6.158;2023-08-06T08:34:15;18.80;99.90
52869;DHT22;39100;53.480;6.158;2023-08-06T08:36:40;18.80;99.90
52869;DHT22;39100;53.480;6.158;2023-08-06T08:39:06;18.80;99.90
52869;DHT22;39100;53.480;6.158;2023-08-06T08:41:32;19.00;99.90
52869;DHT22;39100;53.480;6.158;2023-08-06T08:43:59;19.00;99.90
52869;DHT22;39100;53.480;6.158;2023-08-06T08:46:36;19.10;99.90
52869;DHT22;39100;53.480;6.158;2023-08-06T08:49:02;19.70;99.90
52869;DHT22;39100;53.480;6.158;2023-08-06T08:51:29;19.20;99.90
52869;DHT22;39100;53.480;6.158;2023-08-06T08:53:56;19.20;99.90
52869;DHT22;39100;53.480;6.158;2023-08-06T08:56:24;19.20;99.90
52869;DHT22;39100;53.480;6.158;2023-08-06T08:58:50;19.30;99.90
52869;DHT22;39100;53.480;6.158;2023-08-06T09:01:19;19.30;99.90
52869;DHT22;39100;53.480;6.158;2023-08-06T09:03:46;19.30;99.90
52869;DHT22;39100;53.480;6.158;2023-08-06T09:06:12;19.40;99.90
52869;DHT22;39100;53.480;6.158;2023-08-06T09:08:50;19.40;99.90
52869;DHT22;39100;53.480;6.158;2023-08-06T09:11:16;19.50;99.90
52869;DHT22;39100;53.480;6.158;2023-08-06T09:13:42;19.40;99.90
52869;DHT22;39100;53.480;6.158;2023-08-06T09:16:08;19.40;99.90
52869;DHT22;39100;53.480;6.158;2023-08-06T09:18:33;19.40;99.90
52869;DHT22;39100;53.480;6.158;2023-08-06T09:20:59;19.40;99.90
52869;DHT22;39100;53.480;6.158;2023-08-06T09:23:31;19.40;99.90
52869;DHT22;39100;53.480;6.158;2023-08-06T09:25:58;19.30;99.90
52869;DHT22;39100;53.480;6.158;2023-08-06T09:28:24;19.20;99.90
52869;DHT22;39100;53.480;6.158;2023-08-06T09:30:50;19.20;99.90
52869;DHT22;39100;53.480;6.158;2023-08-06T09:33:22;19.20;99.90
52869;DHT22;39100;53.480;6.158;2023-08-06T09:35:48;19.10;99.90
52869;DHT22;39100;53.480;6.158;2023-08-06T09:38:13;19.10;99.90
52869;DHT22;39100;53.480;6.158;2023-08-06T09:40:39;19.10;99.90
52869;DHT22;39100;53.480;6.158;2023-08-06T09:43:06;19.10;99.90
52869;DHT22;39100;53.480;6.158;2023-08-06T09:45:36;19.20;99.90
52869;DHT22;39100;53.480;6.158;2023-08-06T09:48:07;19.10;99.90
52869;DHT22;39100;53.480;6.158;2023-08-06T09:50:34;19.20;99.90
52869;DHT22;39100;53.480;6.158;2023-08-06T09:53:07;19.20;99.90
52869;DHT22;39100;53.480;6.158;2023-08-06T09:55:34;19.20;99.90
52869;DHT22;39100;53.480;6.158;2023-08-06T09:58:00;19.20;99.90
52869;DHT22;39100;53.480;6.158;2023-08-06T10:00:26;19.20;99.90
52869;DHT22;39100;53.480;6.158;2023-08-06T10:02:53;19.20;99.90
52869;DHT22;39100;53.480;6.158;2023-08-06T10:05:22;19.20;99.90
52869;DHT22;39100;53.480;6.158;2023-08-06T10:07:49;19.20;99.90
52869;DHT22;39100;53.480;6.158;2023-08-06T10:10:16;19.30;99.90
52869;DHT22;39100;53.480;6.158;2023-08-06T10:12:47;19.20;99.90
52869;DHT22;39100;53.480;6.158;2023-08-06T10:15:16;19.30;99.90
52869;DHT22;39100;53.480;6.158;2023-08-06T10:17:43;19.40;99.90
52869;DHT22;39100;53.480;6.158;2023-08-06T10:20:11;19.30;99.90
52869;DHT22;39100;53.480;6.158;2023-08-06T10:22:42;19.40;99.90
52869;DHT22;39100;53.480;6.158;2023-08-06T10:25:09;19.40;99.90
52869;DHT22;39100;53.480;6.158;2023-08-06T10:27:56;19.70;99.90
52869;DHT22;39100;53.480;6.158;2023-08-06T10:32:53;19.60;99.90
52869;DHT22;39100;53.480;6.158;2023-08-06T10:38:04;19.70;99.90
52869;DHT22;39100;53.480;6.158;2023-08-06T10:40:30;19.80;99.90
52869;DHT22;39100;53.480;6.158;2023-08-06T10:42:59;19.80;99.90
52869;DHT22;39100;53.480;6.158;2023-08-06T10:45:25;19.90;99.90
52869;DHT22;39100;53.480;6.158;2023-08-06T10:47:54;20.20;99.90
52869;DHT22;39100;53.480;6.158;2023-08-06T10:50:21;20.20;99.90
52869;DHT22;39100;53.480;6.158;2023-08-06T10:52:47;19.90;99.90
52869;DHT22;39100;53.480;6.158;2023-08-06T10:55:14;19.90;99.90
52869;DHT22;39100;53.480;6.158;2023-08-06T10:57:40;19.90;99.90
52869;DHT22;39100;53.480;6.158;2023-08-06T11:00:06;19.90;99.90
52869;DHT22;39100;53.480;6.158;2023-08-06T11:02:36;19.90;99.90
52869;DHT22;39100;53.480;6.158;2023-08-06T11:05:07;20.10;99.90
52869;DHT22;39100;53.480;6.158;2023-08-06T11:07:34;20.10;99.90
52869;DHT22;39100;53.480;6.158;2023-08-06T11:10:07;20.10;99.90
52869;DHT22;39100;53.480;6.158;2023-08-06T11:12:34;20.20;99.90
52869;DHT22;39100;53.480;6.158;2023-08-06T11:15:00;20.20;99.90
52869;DHT22;39100;53.480;6.158;2023-08-06T11:17:28;20.30;99.90
52869;DHT22;39100;53.480;6.158;2023-08-06T11:19:54;20.30;99.90
52869;DHT22;39100;53.480;6.158;2023-08-06T11:22:21;20.30;99.90
52869;DHT22;39100;53.480;6.158;2023-08-06T11:24:47;20.40;99.90
52869;DHT22;39100;53.480;6.158;2023-08-06T11:27:14;20.40;99.90
52869;DHT22;39100;53.480;6.158;2023-08-06T11:29:41;20.50;99.90
52869;DHT22;39100;53.480;6.158;2023-08-06T11:32:07;20.50;99.90
52869;DHT22;39100;53.480;6.158;2023-08-06T11:34:33;20.50;99.90
52869;DHT22;39100;53.480;6.158;2023-08-06T11:36:59;20.50;99.90
52869;DHT22;39100;53.480;6.158;2023-08-06T11:39:25;20.50;99.90
52869;DHT22;39100;53.480;6.158;2023-08-06T11:41:51;20.50;99.90
52869;DHT22;39100;53.480;6.158;2023-08-06T11:44:19;20.50;99.90
52869;DHT22;39100;53.480;6.158;2023-08-06T11:46:52;20.60;99.90
52869;DHT22;39100;53.480;6.158;2023-08-06T11:49:18;20.70;99.90
52869;DHT22;39100;53.480;6.158;2023-08-06T11:51:49;20.80;99.90
52869;DHT22;39100;53.480;6.158;2023-08-06T11:54:15;20.80;99.90
52869;DHT22;39100;53.480;6.158;2023-08-06T11:56:40;20.90;99.90
52869;DHT22;39100;53.480;6.158;2023-08-06T11:59:08;21.00;99.90
52869;DHT22;39100;53.480;6.158;2023-08-06T12:01:33;21.10;99.90
52869;DHT22;39100;53.480;6.158;2023-08-06T12:03:59;21.80;99.90
52869;DHT22;39100;53.480;6.158;2023-08-06T12:06:28;21.40;99.90
52869;DHT22;39100;53.480;6.158;2023-08-06T12:08:54;21.30;99.90
52869;DHT22;39100;53.480;6.158;2023-08-06T12:11:21;21.30;99.90
52869;DHT22;39100;53.480;6.158;2023-08-06T12:13:51;21.40;99.90
52869;DHT22;39100;53.480;6.158;2023-08-06T12:16:16;21.40;99.90
52869;DHT22;39100;53.480;6.158;2023-08-06T12:18:44;21.40;99.90
52869;DHT22;39100;53.480;6.158;2023-08-06T12:21:10;21.40;99.90
52869;DHT22;39100;53.480;6.158;2023-08-06T12:23:35;21.50;99.90
52869;DHT22;39100;53.480;6.158;2023-08-06T12:26:01;21.50;99.90
52869;DHT22;39100;53.480;6.158;2023-08-06T12:28:27;21.20;99.90
52869;DHT22;39100;53.480;6.158;2023-08-06T12:30:52;21.20;99.90
52869;DHT22;39100;53.480;6.158;2023-08-06T12:33:20;21.20;99.90
52869;DHT22;39100;53.480;6.158;2023-08-06T12:35:46;21.20;99.90
52869;DHT22;39100;53.480;6.158;2023-08-06T12:38:11;21.30;99.90
52869;DHT22;39100;53.480;6.158;2023-08-06T12:40:38;21.30;99.90
52869;DHT22;39100;53.480;6.158;2023-08-06T12:43:04;21.20;99.90
52869;DHT22;39100;53.480;6.158;2023-08-06T12:45:30;21.20;99.90
52869;DHT22;39100;53.480;6.158;2023-08-06T12:47:55;21.10;99.90
52869;DHT22;39100;53.480;6.158;2023-08-06T12:50:21;21.20;99.90
52869;DHT22;39100;53.480;6.158;2023-08-06T12:52:46;21.20;99.90
52869;DHT22;39100;53.480;6.158;2023-08-06T12:55:12;21.40;99.90
52869;DHT22;39100;53.480;6.158;2023-08-06T12:57:37;21.40;99.90
52869;DHT22;39100;53.480;6.158;2023-08-06T13:00:03;21.50;99.90
52869;DHT22;39100;53.480;6.158;2023-08-06T13:02:30;21.50;99.90
52869;DHT22;39100;53.480;6.158;2023-08-06T13:04:56;21.60;99.90
52869;DHT22;39100;53.480;6.158;2023-08-06T13:07:21;21.60;99.90
52869;DHT22;39100;53.480;6.158;2023-08-06T13:09:47;21.70;99.90
52869;DHT22;39100;53.480;6.158;2023-08-06T13:12:12;21.80;99.90
52869;DHT22;39100;53.480;6.158;2023-08-06T13:14:38;21.70;99.90
52869;DHT22;39100;53.480;6.158;2023-08-06T13:17:03;21.80;99.90
52869;DHT22;39100;53.480;6.158;2023-08-06T13:19:32;21.90;99.90
52869;DHT22;39100;53.480;6.158;2023-08-06T13:22:04;22.00;99.90
52869;DHT22;39100;53.480;6.158;2023-08-06T13:24:31;22.30;99.90
52869;DHT22;39100;53.480;6.158;2023-08-06T13:26:56;22.20;99.90
52869;DHT22;39100;53.480;6.158;2023-08-06T13:29:22;22.40;99.90
52869;DHT22;39100;53.480;6.158;2023-08-06T13:31:48;22.40;99.90
52869;DHT22;39100;53.480;6.158;2023-08-06T13:34:13;22.50;99.90
52869;DHT22;39100;53.480;6.158;2023-08-06T13:36:39;22.40;99.90
52869;DHT22;39100;53.480;6.158;2023-08-06T13:39:05;22.60;99.90
52869;DHT22;39100;53.480;6.158;2023-08-06T13:41:31;22.70;99.90
52869;DHT22;39100;53.480;6.158;2023-08-06T13:43:56;22.70;99.90
52869;DHT22;39100;53.480;6.158;2023-08-06T13:46:22;22.70;99.90
52869;DHT22;39100;53.480;6.158;2023-08-06T13:48:48;22.80;99.90
52869;DHT22;39100;53.480;6.158;2023-08-06T13:51:16;22.80;99.90
52869;DHT22;39100;53.480;6.158;2023-08-06T13:53:42;22.90;99.90
52869;DHT22;39100;53.480;6.158;2023-08-06T13:56:11;22.80;99.90
52869;DHT22;39100;53.480;6.158;2023-08-06T13:58:37;22.80;99.90
52869;DHT22;39100;53.480;6.158;2023-08-06T14:01:02;22.80;99.90
52869;DHT22;39100;53.480;6.158;2023-08-06T14:03:28;22.90;99.90
52869;DHT22;39100;53.480;6.158;2023-08-06T14:05:54;23.10;99.90
52869;DHT22;39100;53.480;6.158;2023-08-06T14:08:23;22.90;99.90
52869;DHT22;39100;53.480;6.158;2023-08-06T14:10:50;22.90;99.90
52869;DHT22;39100;53.480;6.158;2023-08-06T14:13:16;22.90;99.90
52869;DHT22;39100;53.480;6.158;2023-08-06T14:15:41;23.00;99.90
52869;DHT22;39100;53.480;6.158;2023-08-06T14:18:07;23.20;99.90
52869;DHT22;39100;53.480;6.158;2023-08-06T14:20:35;23.50;99.90
52869;DHT22;39100;53.480;6.158;2023-08-06T14:23:02;23.50;99.90
52869;DHT22;39100;53.480;6.158;2023-08-06T14:25:27;23.40;99.90
52869;DHT22;39100;53.480;6.158;2023-08-06T14:27:53;23.30;99.90
52869;DHT22;39100;53.480;6.158;2023-08-06T14:30:19;23.20;99.90
52869;DHT22;39100;53.480;6.158;2023-08-06T14:32:45;23.10;99.90
52869;DHT22;39100;53.480;6.158;2023-08-06T14:35:10;23.10;99.90
52869;DHT22;39100;53.480;6.158;2023-08-06T14:37:36;23.10;99.90
52869;DHT22;39100;53.480;6.158;2023-08-06T14:40:01;23.00;99.90
52869;DHT22;39100;53.480;6.158;2023-08-06T14:42:27;23.10;99.90
52869;DHT22;39100;53.480;6.158;2023-08-06T14:44:53;23.00;99.90
52869;DHT22;39100;53.480;6.158;2023-08-06T14:47:18;23.10;99.90
52869;DHT22;39100;53.480;6.158;2023-08-06T14:49:44;23.00;99.90
52869;DHT22;39100;53.480;6.158;2023-08-06T14:52:10;22.90;99.90
52869;DHT22;39100;53.480;6.158;2023-08-06T14:54:35;22.90;99.90
52869;DHT22;39100;53.480;6.158;2023-08-06T14:57:01;22.90;99.90
52869;DHT22;39100;53.480;6.158;2023-08-06T14:59:27;22.90;99.90
52869;DHT22;39100;53.480;6.158;2023-08-06T15:01:52;23.10;99.90
52869;DHT22;39100;53.480;6.158;2023-08-06T15:04:18;22.90;99.90
52869;DHT22;39100;53.480;6.158;2023-08-06T15:06:44;22.90;99.90
52869;DHT22;39100;53.480;6.158;2023-08-06T15:09:09;22.80;99.90
52869;DHT22;39100;53.480;6.158;2023-08-06T15:11:35;22.80;99.90
52869;DHT22;39100;53.480;6.158;2023-08-06T15:14:01;22.80;99.90
52869;DHT22;39100;53.480;6.158;2023-08-06T15:16:26;22.70;99.90
52869;DHT22;39100;53.480;6.158;2023-08-06T15:18:52;22.80;99.90
52869;DHT22;39100;53.480;6.158;2023-08-06T15:21:18;22.50;99.90
52869;DHT22;39100;53.480;6.158;2023-08-06T15:23:43;22.50;99.90
52869;DHT22;39100;53.480;6.158;2023-08-06T15:26:09;22.40;99.90
52869;DHT22;39100;53.480;6.158;2023-08-06T15:28:34;22.30;99.90
52869;DHT22;39100;53.480;6.158;2023-08-06T15:31:01;22.40;99.90
52869;DHT22;39100;53.480;6.158;2023-08-06T15:33:29;22.20;99.90
52869;DHT22;39100;53.480;6.158;2023-08-06T15:35:55;22.10;99.90
52869;DHT22;39100;53.480;6.158;2023-08-06T15:38:21;22.10;99.90
52869;DHT22;39100;53.480;6.158;2023-08-06T15:40:46;22.00;99.90